West Salem, Wisconsin
Current Conditions -  °F | °C
As of 6:53 PM on Saturday 22 Nov 2014 (Local Time) from KLSE Reporting Station
Haze Haze  
Wind Chill: 34°   Ceiling: 300
Heat Index: 40°   Visibility: 1.7mi
Dew Point: 39°   Wind: 8mph
Humidity: 97%   Direction: 110°ESE
Pressure: 29.7"   Gusts: NA
Location:  43.9°N, 91.08°W
Report Text: KLSE 230053Z 11007KT 1 3/4SM BR OVC003 04/04 A2970 RMK AO2 SLP065 T00440039
Loading
Personal Weather Stations






























Interactive Weather Map New forecast layout! Learn more

10-Day Weather Forecast

Advertisements
Track Severe Weather on mobile